Newport, Arkansas
Current Conditions -  °F | °C
As of 2:56 PM on Friday 24 Oct 2014 (Local Time) from KM19 Reporting Station
Clear Clear  
Wind Chill: 76°   Ceiling: Unl
Heat Index: 76°   Visibility: 10mi
Dew Point: 55°   Wind: 9mph
Humidity: 48%   Direction: 230°SW
Pressure: 30.09"   Gusts: NA
Location:  35.6°N, 91.28°W
Report Text: KM19 241956Z AUTO 23008KT 10SM CLR 24/13 A3009 RMK AO2 T02440127 SLP189
Loading
Personal Weather Stations






























Interactive Weather Map
Tropical Storm Tracking
New forecast layout! Learn more

10-Day Weather Forecast

Advertisements
Track Severe Weather on mobile